createdAt,value
2023-01-19T00:00:54.725Z,5.97
2023-01-19T00:03:28.932Z,5.57
2023-01-19T00:05:56.300Z,6.03
2023-01-19T00:08:25.792Z,6.28
2023-01-19T00:10:53.176Z,6.10
2023-01-19T00:13:20.373Z,6.03
2023-01-19T00:15:47.701Z,6.18
2023-01-19T00:18:14.883Z,6.85
2023-01-19T00:20:44.946Z,5.07
2023-01-19T00:23:12.962Z,5.35
2023-01-19T00:25:42.837Z,5.20
2023-01-19T00:28:11.730Z,5.35
2023-01-19T00:30:42.380Z,6.03
2023-01-19T00:33:10.519Z,5.70
2023-01-19T00:35:37.893Z,5.20
2023-01-19T00:38:05.242Z,7.25
2023-01-19T00:40:32.585Z,4.90
2023-01-19T00:43:00.785Z,5.55
2023-01-19T00:45:29.316Z,5.18
2023-01-19T00:47:58.466Z,5.40
2023-01-19T00:50:27.947Z,5.10
2023-01-19T00:52:56.302Z,4.97
2023-01-19T00:55:24.326Z,4.30
2023-01-19T00:57:51.639Z,4.10
2023-01-19T01:00:20.293Z,2.65
2023-01-19T01:02:48.899Z,3.90
2023-01-19T01:07:45.426Z,2.95
2023-01-19T01:10:24.183Z,4.55
2023-01-19T01:12:57.432Z,4.68
2023-01-19T01:15:27.163Z,3.33
2023-01-19T01:17:54.847Z,3.83
2023-01-19T01:20:25.702Z,3.92
2023-01-19T01:22:54.331Z,3.67
2023-01-19T01:25:23.673Z,4.20
2023-01-19T01:30:21.450Z,3.97
2023-01-19T01:32:50.962Z,5.03
2023-01-19T01:35:18.933Z,4.40
2023-01-19T01:37:45.940Z,3.42
2023-01-19T01:40:15.612Z,3.60
2023-01-19T01:42:43.026Z,3.95
2023-01-19T01:45:35.631Z,3.92
2023-01-19T01:48:11.743Z,3.15
2023-01-19T01:51:08.285Z,4.15
2023-01-19T01:53:39.885Z,4.43
2023-01-19T01:56:13.255Z,4.10
2023-01-19T01:58:40.638Z,3.92
2023-01-19T02:01:29.333Z,4.78
2023-01-19T02:03:59.596Z,4.10
2023-01-19T02:06:27.125Z,3.90
2023-01-19T02:09:22.158Z,4.57
2023-01-19T02:12:09.468Z,5.22
2023-01-19T02:14:39.887Z,5.43
2023-01-19T02:17:07.648Z,3.67
2023-01-19T02:19:42.223Z,5.05
2023-01-19T02:22:22.611Z,3.85
2023-01-19T02:24:50.124Z,3.90
2023-01-19T02:27:18.385Z,4.28
2023-01-19T02:29:46.225Z,3.65
2023-01-19T02:32:14.490Z,3.72
2023-01-19T02:34:41.535Z,4.45
2023-01-19T02:37:15.905Z,3.40
2023-01-19T02:39:51.120Z,3.95
2023-01-19T02:44:52.717Z,3.30
2023-01-19T02:47:20.471Z,3.78
2023-01-19T02:50:02.117Z,4.03
2023-01-19T02:55:10.778Z,3.38
2023-01-19T02:57:56.672Z,3.22
2023-01-19T03:00:52.148Z,3.45
2023-01-19T03:03:46.393Z,3.42
2023-01-19T03:06:30.594Z,3.55
2023-01-19T03:09:04.564Z,3.72
2023-01-19T03:11:37.157Z,3.70
2023-01-19T03:14:11.610Z,4.13
2023-01-19T03:16:48.695Z,3.58
2023-01-19T03:19:31.702Z,4.38
2023-01-19T03:22:03.880Z,3.88
2023-01-19T03:24:37.935Z,4.07
2023-01-19T03:27:10.796Z,3.75
2023-01-19T03:29:42.433Z,4.47
2023-01-19T03:32:17.606Z,3.60
2023-01-19T03:34:48.140Z,5.25
2023-01-19T03:37:19.419Z,3.83
2023-01-19T03:39:47.397Z,3.78
2023-01-19T03:42:18.235Z,5.13
2023-01-19T03:44:50.629Z,3.88
2023-01-19T03:47:20.407Z,3.83
2023-01-19T03:49:51.016Z,4.38
2023-01-19T03:52:18.248Z,3.50
2023-01-19T03:54:45.675Z,4.47
2023-01-19T03:57:13.037Z,4.40
2023-01-19T03:59:41.435Z,3.92
2023-01-19T04:02:08.530Z,4.05
2023-01-19T04:04:40.008Z,3.70
2023-01-19T04:07:10.120Z,4.70
2023-01-19T04:09:37.813Z,4.20
2023-01-19T04:12:05.519Z,3.88
2023-01-19T04:14:33.043Z,3.35
2023-01-19T04:17:00.347Z,4.47
2023-01-19T04:19:29.060Z,3.65
2023-01-19T04:21:56.961Z,3.63
2023-01-19T04:24:24.261Z,3.35
2023-01-19T04:26:54.083Z,4.47
2023-01-19T04:29:21.551Z,3.38
2023-01-19T04:37:29.304Z,5.20
2023-01-19T04:40:02.568Z,3.63
2023-01-19T04:42:30.975Z,5.75
2023-01-19T04:44:59.117Z,5.38
2023-01-19T04:47:27.589Z,4.60
2023-01-19T04:49:54.714Z,4.82
2023-01-19T04:52:22.055Z,4.93
2023-01-19T04:54:50.158Z,4.30
2023-01-19T04:57:17.559Z,4.55
2023-01-19T04:59:44.617Z,5.25
2023-01-19T05:02:14.611Z,5.15
2023-01-19T05:04:54.073Z,4.65
2023-01-19T05:07:21.577Z,5.22
2023-01-19T05:09:48.849Z,4.88
2023-01-19T05:12:16.258Z,3.80
2023-01-19T05:14:43.465Z,4.95
2023-01-19T05:17:14.181Z,4.38
2023-01-19T05:19:41.602Z,6.25
2023-01-19T05:22:09.098Z,4.97
2023-01-19T05:24:36.139Z,4.57
2023-01-19T05:27:04.142Z,5.28
2023-01-19T05:29:31.291Z,6.55
2023-01-19T05:31:58.715Z,5.97
2023-01-19T05:34:25.689Z,5.55
2023-01-19T05:36:56.918Z,5.82
2023-01-19T05:39:24.137Z,5.60
2023-01-19T05:41:52.944Z,5.57
2023-01-19T05:44:22.481Z,5.20
2023-01-19T05:46:49.952Z,5.82
2023-01-19T05:49:24.399Z,7.53
2023-01-19T05:51:54.255Z,4.45
2023-01-19T05:54:27.609Z,5.43
2023-01-19T06:00:30.786Z,5.90
2023-01-19T06:05:48.213Z,6.63
2023-01-19T06:08:18.857Z,5.85
2023-01-19T06:13:31.518Z,6.32
2023-01-19T06:16:00.399Z,6.03
2023-01-19T06:18:28.771Z,5.63
2023-01-19T06:21:06.014Z,7.47
2023-01-19T06:26:06.571Z,4.57
2023-01-19T06:28:37.235Z,5.20
2023-01-19T06:31:05.423Z,5.63
2023-01-19T06:33:34.566Z,6.00
2023-01-19T06:36:04.908Z,5.57
2023-01-19T06:38:33.085Z,7.55
2023-01-19T06:41:00.180Z,7.30
2023-01-19T06:43:33.502Z,6.65
2023-01-19T06:46:02.660Z,6.22
2023-01-19T06:48:30.679Z,7.38
2023-01-19T06:50:59.669Z,9.23
2023-01-19T06:56:01.994Z,9.05
2023-01-19T06:58:31.917Z,18.30
2023-01-19T07:01:06.399Z,9.38
2023-01-19T07:03:35.856Z,7.35
2023-01-19T07:08:30.644Z,7.50
2023-01-19T07:11:25.949Z,6.65
2023-01-19T07:13:55.769Z,9.73
2023-01-19T07:16:30.513Z,7.95
2023-01-19T07:18:57.834Z,6.35
2023-01-19T07:21:29.172Z,7.50
2023-01-19T07:23:56.674Z,6.53
2023-01-19T07:26:28.124Z,7.13
2023-01-19T07:28:56.552Z,8.40
2023-01-19T07:31:23.640Z,7.30
2023-01-19T07:33:51.233Z,5.30
2023-01-19T07:36:19.888Z,5.65
2023-01-19T07:41:16.701Z,3.38
2023-01-19T07:43:44.044Z,5.13
2023-01-19T07:46:11.196Z,6.43
2023-01-19T07:48:38.769Z,6.25
2023-01-19T07:51:11.718Z,6.15
2023-01-19T07:53:42.062Z,6.03
2023-01-19T07:56:11.985Z,6.35
2023-01-19T07:58:39.945Z,6.80
2023-01-19T08:01:09.885Z,6.82
2023-01-19T08:06:28.945Z,5.32
2023-01-19T08:08:56.527Z,4.78
2023-01-19T08:11:23.537Z,4.43
2023-01-19T08:13:51.157Z,4.32
2023-01-19T08:16:18.130Z,4.35
2023-01-19T08:18:46.192Z,4.53
2023-01-19T08:21:13.300Z,4.10
2023-01-19T08:23:40.790Z,3.53
2023-01-19T08:26:32.885Z,4.53
2023-01-19T08:29:05.491Z,3.90
2023-01-19T08:31:39.937Z,3.90
2023-01-19T08:34:11.040Z,3.85
2023-01-19T08:36:38.808Z,3.78
2023-01-19T08:39:06.328Z,3.83
2023-01-19T08:41:33.996Z,3.63
2023-01-19T08:44:03.633Z,4.03
2023-01-19T08:46:32.944Z,3.50
2023-01-19T08:49:00.449Z,2.85
2023-01-19T08:51:29.616Z,3.63
2023-01-19T08:53:57.213Z,3.15
2023-01-19T08:56:24.654Z,5.13
2023-01-19T08:59:08.203Z,4.15
2023-01-19T09:01:39.290Z,3.35
2023-01-19T09:04:06.859Z,4.07
2023-01-19T09:06:34.258Z,3.38
2023-01-19T09:14:16.495Z,2.55
2023-01-19T09:16:43.785Z,3.38
2023-01-19T09:19:11.342Z,3.47
2023-01-19T09:21:38.625Z,3.65
2023-01-19T09:24:14.749Z,4.15
2023-01-19T09:26:41.949Z,2.92
2023-01-19T09:29:11.710Z,3.47
2023-01-19T09:31:41.144Z,2.92
2023-01-19T09:34:08.635Z,3.10
2023-01-19T09:36:37.407Z,3.58
2023-01-19T09:39:06.560Z,3.33
2023-01-19T09:41:52.283Z,3.75
2023-01-19T09:44:28.347Z,3.92
2023-01-19T09:46:55.638Z,2.95
2023-01-19T09:49:33.776Z,3.58
2023-01-19T09:52:00.952Z,3.03
2023-01-19T09:57:17.737Z,3.40
2023-01-19T09:59:49.371Z,3.00
2023-01-19T10:02:26.626Z,3.78
2023-01-19T10:05:21.488Z,4.30
2023-01-19T10:08:08.662Z,2.92
2023-01-19T10:10:39.014Z,2.83
2023-01-19T10:13:24.299Z,3.97
2023-01-19T10:16:20.669Z,3.10
2023-01-19T10:18:51.928Z,4.03
2023-01-19T10:21:35.564Z,3.05
2023-01-19T10:24:11.256Z,2.97
2023-01-19T10:26:44.196Z,3.10
2023-01-19T10:29:36.413Z,3.65
2023-01-19T10:32:13.055Z,3.10
2023-01-19T10:34:41.729Z,3.50
2023-01-19T10:37:17.909Z,3.90
2023-01-19T10:39:54.865Z,2.83
2023-01-19T10:42:22.386Z,3.90
2023-01-19T10:44:50.511Z,2.70
2023-01-19T10:47:24.730Z,3.35
2023-01-19T10:49:52.604Z,4.47
2023-01-19T10:52:29.412Z,3.58
2023-01-19T10:54:57.563Z,3.95
2023-01-19T10:57:31.811Z,2.92
2023-01-19T10:59:59.343Z,3.45
2023-01-19T11:08:30.657Z,3.67
2023-01-19T11:11:08.409Z,3.22
2023-01-19T11:13:37.113Z,3.53
2023-01-19T11:16:23.320Z,4.13
2023-01-19T11:18:56.448Z,2.50
2023-01-19T11:21:28.064Z,3.47
2023-01-19T11:24:05.487Z,4.18
2023-01-19T11:26:48.291Z,4.28
2023-01-19T11:29:20.373Z,3.22
2023-01-19T11:31:50.631Z,3.88
2023-01-19T11:34:42.970Z,3.17
2023-01-19T11:37:16.266Z,3.15
2023-01-19T11:39:52.779Z,3.15
2023-01-19T11:42:20.629Z,3.25
2023-01-19T11:45:14.503Z,3.75
2023-01-19T11:47:47.149Z,3.45
2023-01-19T11:50:40.038Z,2.65
2023-01-19T11:53:16.979Z,2.78
2023-01-19T11:56:04.844Z,3.75
2023-01-19T12:01:28.089Z,4.32
2023-01-19T12:04:01.384Z,2.90
2023-01-19T12:06:38.636Z,3.90
2023-01-19T12:09:13.237Z,3.42
2023-01-19T12:11:57.973Z,3.42
2023-01-19T12:14:48.316Z,3.15
2023-01-19T12:17:25.946Z,4.18
2023-01-19T12:20:31.063Z,3.08
2023-01-19T12:23:37.096Z,3.17
2023-01-19T12:26:17.451Z,3.42
2023-01-19T12:29:01.477Z,3.35
2023-01-19T12:31:29.023Z,4.28
2023-01-19T12:34:25.384Z,3.47
2023-01-19T12:36:59.029Z,3.25
2023-01-19T12:39:26.691Z,3.15
2023-01-19T12:42:27.006Z,3.63
2023-01-19T12:45:17.314Z,2.65
2023-01-19T12:47:53.016Z,4.55
2023-01-19T12:50:25.758Z,3.97
2023-01-19T12:52:58.601Z,3.13
2023-01-19T12:55:37.179Z,4.15
2023-01-19T12:58:04.431Z,3.63
2023-01-19T13:00:38.737Z,4.10
2023-01-19T13:03:25.707Z,2.95
2023-01-19T13:05:55.309Z,3.15
2023-01-19T13:08:29.898Z,4.07
2023-01-19T13:11:00.520Z,4.63
2023-01-19T13:13:27.974Z,3.50
2023-01-19T13:15:56.630Z,4.28
2023-01-19T13:18:31.644Z,4.07
2023-01-19T13:21:10.360Z,3.28
2023-01-19T13:24:02.264Z,2.92
2023-01-19T13:32:39.722Z,3.72
2023-01-19T13:35:20.337Z,4.50
2023-01-19T13:37:48.898Z,3.80
2023-01-19T13:40:25.590Z,3.45
2023-01-19T13:42:54.407Z,3.78
2023-01-19T13:48:22.338Z,3.30
2023-01-19T13:51:02.453Z,3.35
2023-01-19T13:53:30.588Z,3.60
2023-01-19T13:56:22.197Z,3.38
2023-01-19T13:58:59.312Z,3.50
2023-01-19T14:01:29.547Z,3.55
2023-01-19T14:03:57.517Z,3.80
2023-01-19T14:06:33.789Z,4.15
2023-01-19T14:09:08.168Z,3.25
2023-01-19T14:11:38.240Z,4.25
2023-01-19T14:14:05.227Z,4.03
2023-01-19T14:16:35.271Z,3.05
2023-01-19T14:19:04.791Z,3.97
2023-01-19T14:21:40.716Z,3.35
2023-01-19T14:24:17.481Z,3.55
2023-01-19T14:26:54.032Z,3.67
2023-01-19T14:29:33.252Z,4.20
2023-01-19T14:32:02.918Z,3.60
2023-01-19T14:34:48.108Z,4.00
2023-01-19T14:37:29.398Z,3.38
2023-01-19T14:40:17.692Z,3.00
2023-01-19T14:42:52.627Z,5.10
2023-01-19T14:45:21.067Z,4.30
2023-01-19T14:48:01.211Z,3.95
2023-01-19T14:50:33.221Z,4.43
2023-01-19T14:53:08.624Z,4.70
2023-01-19T14:55:39.996Z,3.72
2023-01-19T14:58:15.167Z,4.57
2023-01-19T15:00:46.614Z,3.25
2023-01-19T15:03:14.857Z,4.03
2023-01-19T15:05:50.429Z,4.78
2023-01-19T15:08:24.733Z,3.95
2023-01-19T15:10:51.872Z,5.03
2023-01-19T15:13:25.673Z,4.15
2023-01-19T15:15:55.430Z,2.85
2023-01-19T15:18:26.680Z,3.80
2023-01-19T15:21:05.233Z,4.03
2023-01-19T15:23:33.483Z,4.38
2023-01-19T15:26:07.893Z,4.13
2023-01-19T15:28:35.331Z,4.47
2023-01-19T15:31:05.534Z,4.20
2023-01-19T15:36:54.535Z,5.57
2023-01-19T15:39:26.591Z,4.53
2023-01-19T15:41:56.686Z,5.72
2023-01-19T15:44:24.181Z,4.45
2023-01-19T15:49:51.703Z,4.63
2023-01-19T15:52:24.525Z,5.50
2023-01-19T15:54:59.675Z,4.68
2023-01-19T15:57:27.259Z,4.25
2023-01-19T15:59:54.849Z,4.00
2023-01-19T16:02:23.469Z,3.75
2023-01-19T16:04:50.636Z,5.30
2023-01-19T16:07:20.201Z,5.38
2023-01-19T16:09:52.319Z,5.60
2023-01-19T16:12:20.105Z,7.05
2023-01-19T16:14:47.175Z,7.88
2023-01-19T16:17:14.638Z,6.65
2023-01-19T16:19:41.797Z,7.88
2023-01-19T16:22:12.261Z,7.70
2023-01-19T16:24:39.556Z,6.45
2023-01-19T16:27:08.940Z,6.40
2023-01-19T16:29:36.431Z,5.90
2023-01-19T16:32:12.604Z,6.38
2023-01-19T16:34:39.815Z,5.38
2023-01-19T16:37:07.743Z,6.65
2023-01-19T16:39:34.860Z,5.13
2023-01-19T16:42:02.632Z,5.97
2023-01-19T16:44:30.627Z,5.25
2023-01-19T16:46:58.126Z,5.72
2023-01-19T16:49:28.523Z,6.30
2023-01-19T16:51:58.685Z,5.35
2023-01-19T16:54:28.664Z,6.72
2023-01-19T16:56:57.768Z,5.38
2023-01-19T16:59:29.237Z,5.28
2023-01-19T17:01:57.949Z,4.55
2023-01-19T17:04:26.566Z,4.47
2023-01-19T17:06:55.162Z,5.10
2023-01-19T17:09:22.380Z,4.53
2023-01-19T17:11:56.571Z,4.18
2023-01-19T17:14:24.774Z,3.97
2023-01-19T17:16:53.220Z,4.57
2023-01-19T17:19:22.325Z,3.67
2023-01-19T17:21:50.089Z,3.15
2023-01-19T17:24:22.562Z,4.43
2023-01-19T17:26:50.075Z,5.50
2023-01-19T17:29:17.651Z,5.20
2023-01-19T17:31:46.037Z,5.47
2023-01-19T17:37:02.956Z,5.15
2023-01-19T17:39:35.696Z,5.38
2023-01-19T17:42:06.253Z,4.40
2023-01-19T17:44:37.376Z,3.70
2023-01-19T17:47:05.088Z,4.05
2023-01-19T17:49:34.765Z,4.28
2023-01-19T17:52:02.376Z,5.00
2023-01-19T17:54:29.409Z,4.07
2023-01-19T17:56:57.007Z,4.07
2023-01-19T17:59:30.579Z,3.83
2023-01-19T18:01:58.964Z,4.70
2023-01-19T18:04:26.128Z,5.63
2023-01-19T18:06:57.598Z,5.78
2023-01-19T18:09:24.732Z,5.22
2023-01-19T18:11:52.357Z,4.97
2023-01-19T18:14:19.840Z,5.03
2023-01-19T18:17:06.421Z,6.13
2023-01-19T18:19:35.194Z,5.72
2023-01-19T18:22:02.505Z,5.10
2023-01-19T18:24:30.492Z,6.38
2023-01-19T18:27:00.106Z,5.65
2023-01-19T18:29:42.947Z,5.35
2023-01-19T18:32:11.130Z,5.53
2023-01-19T18:34:39.714Z,5.60
2023-01-19T18:37:07.459Z,4.07
2023-01-19T18:39:34.561Z,3.88
2023-01-19T18:42:02.028Z,5.03
2023-01-19T18:44:29.105Z,4.40
2023-01-19T18:46:56.900Z,4.43
2023-01-19T18:49:23.951Z,5.07
2023-01-19T18:51:51.385Z,4.45
2023-01-19T18:54:18.368Z,3.67
2023-01-19T18:56:46.377Z,4.50
2023-01-19T18:59:13.589Z,3.80
2023-01-19T19:01:41.550Z,3.92
2023-01-19T19:04:16.972Z,3.90
2023-01-19T19:10:24.478Z,3.80
2023-01-19T19:13:07.839Z,3.35
2023-01-19T19:15:43.231Z,4.72
2023-01-19T19:21:14.585Z,3.83
2023-01-19T19:23:42.506Z,5.53
2023-01-19T19:26:40.917Z,4.07
2023-01-19T19:29:15.449Z,4.30
2023-01-19T19:31:43.088Z,3.92
2023-01-19T19:40:16.979Z,3.95
2023-01-19T19:51:28.282Z,3.75
2023-01-19T19:53:59.082Z,4.35
2023-01-19T19:56:30.597Z,4.55
2023-01-19T19:59:03.319Z,4.45
2023-01-19T20:01:33.721Z,4.43
2023-01-19T20:04:08.938Z,4.05
2023-01-19T20:06:49.016Z,4.32
2023-01-19T20:09:18.236Z,4.05
2023-01-19T20:11:48.056Z,4.03
2023-01-19T20:14:16.395Z,3.50
2023-01-19T20:16:43.915Z,4.65
2023-01-19T20:19:12.219Z,4.40
2023-01-19T20:21:44.493Z,4.00
2023-01-19T20:24:18.715Z,4.55
2023-01-19T20:26:58.194Z,4.53
2023-01-19T20:29:28.117Z,3.88
2023-01-19T20:31:56.864Z,4.45
2023-01-19T20:34:29.522Z,4.53
2023-01-19T20:36:58.251Z,4.22
2023-01-19T20:39:26.056Z,3.83
2023-01-19T20:41:53.591Z,3.67
2023-01-19T20:44:23.569Z,3.83
2023-01-19T20:46:50.956Z,4.63
2023-01-19T20:49:18.807Z,3.72
2023-01-19T20:51:47.064Z,3.75
2023-01-19T20:54:17.538Z,4.18
2023-01-19T20:56:44.910Z,4.10
2023-01-19T20:59:13.609Z,3.70
2023-01-19T21:01:41.874Z,3.75
2023-01-19T21:04:12.803Z,3.90
2023-01-19T21:06:42.585Z,4.00
2023-01-19T21:09:11.141Z,2.92
2023-01-19T21:11:40.024Z,3.05
2023-01-19T21:14:12.250Z,3.65
2023-01-19T21:16:47.756Z,4.70
2023-01-19T21:19:35.743Z,3.63
2023-01-19T21:22:03.514Z,3.30
2023-01-19T21:27:34.814Z,2.90
2023-01-19T21:30:05.880Z,3.83
2023-01-19T21:32:34.474Z,3.08
2023-01-19T21:37:55.548Z,3.13
2023-01-19T21:40:23.836Z,3.42
2023-01-19T21:42:53.082Z,3.72
2023-01-19T21:45:21.135Z,3.33
2023-01-19T21:47:48.229Z,3.45
2023-01-19T21:50:16.445Z,2.90
2023-01-19T21:52:44.365Z,2.60
2023-01-19T21:55:12.238Z,3.80
2023-01-19T21:57:41.765Z,3.65
2023-01-19T22:00:11.754Z,3.58
2023-01-19T22:02:39.341Z,2.75
2023-01-19T22:05:07.273Z,3.88
2023-01-19T22:07:36.878Z,3.30
2023-01-19T22:10:06.333Z,3.38
2023-01-19T22:12:33.469Z,2.90
2023-01-19T22:15:00.813Z,3.03
2023-01-19T22:17:28.178Z,2.65
2023-01-19T22:19:58.274Z,2.92
2023-01-19T22:22:25.465Z,2.75
2023-01-19T22:24:52.818Z,2.63
2023-01-19T22:27:19.930Z,3.60
2023-01-19T22:29:49.841Z,3.40
2023-01-19T22:32:16.987Z,3.05
2023-01-19T22:34:44.451Z,3.17
2023-01-19T22:37:11.431Z,2.90
2023-01-19T22:39:38.932Z,3.13
2023-01-19T22:42:06.194Z,2.60
2023-01-19T22:44:35.224Z,2.60
2023-01-19T22:47:02.282Z,3.15
2023-01-19T22:49:29.819Z,3.05
2023-01-19T22:51:57.445Z,2.53
2023-01-19T22:54:24.761Z,2.72
2023-01-19T22:56:51.828Z,2.85
2023-01-19T22:59:19.185Z,2.60
2023-01-19T23:01:47.320Z,4.03
2023-01-19T23:04:16.116Z,2.97
2023-01-19T23:06:47.157Z,2.38
2023-01-19T23:09:14.851Z,2.88
2023-01-19T23:11:44.928Z,2.60
2023-01-19T23:14:17.813Z,2.58
2023-01-19T23:16:47.755Z,3.05
2023-01-19T23:19:19.886Z,3.00
2023-01-19T23:21:51.023Z,4.30
2023-01-19T23:24:24.905Z,3.50
2023-01-19T23:26:52.343Z,4.07
2023-01-19T23:29:19.864Z,4.35
2023-01-19T23:31:49.586Z,4.03
2023-01-19T23:34:16.848Z,3.72
2023-01-19T23:36:45.976Z,3.72
2023-01-19T23:39:19.153Z,2.40
2023-01-19T23:41:47.689Z,3.65
2023-01-19T23:44:17.416Z,3.55
2023-01-19T23:46:45.644Z,3.63
2023-01-19T23:49:13.338Z,4.10
2023-01-19T23:51:41.623Z,2.97
2023-01-19T23:54:09.390Z,3.53
2023-01-19T23:56:38.277Z,3.47
2023-01-19T23:59:08.328Z,2.28
